Terminal Aerodrome Forecast
Issued by NWS

Home | Current Version | Previous Version | Text Only | Print | Product List | Glossary On
Versions: 1 2 3 4 5 6 7 8 9 10 11 12 13 14 15 16 17 18 19 20 21 22 23 24
476
FTUS42 KJAX 231740
TAFVQQ
TAF
KVQQ 231740Z 2318/2418 20008KT P6SM SCT045 BKN250
     FM240000 17003KT P6SM SCT250
     FM241300 23007KT P6SM FEW035 SCT250=

USA.gov is the U.S. government's official web portal to all federal, state and local government web resources and services.